createdAt,value
2023-03-04T00:01:16.234Z,31.90
2023-03-04T00:03:42.873Z,31.40
2023-03-04T00:06:09.500Z,31.60
2023-03-04T00:08:36.168Z,31.40
2023-03-04T00:11:02.749Z,31.50
2023-03-04T00:13:29.439Z,31.60
2023-03-04T00:15:56.005Z,31.10
2023-03-04T00:18:22.678Z,31.10
2023-03-04T00:20:50.457Z,30.90
2023-03-04T00:23:17.065Z,31.00
2023-03-04T00:25:44.976Z,30.40
2023-03-04T00:28:11.533Z,30.90
2023-03-04T00:30:38.075Z,30.50
2023-03-04T00:33:04.657Z,30.50
2023-03-04T00:35:31.229Z,30.50
2023-03-04T00:37:57.919Z,30.50
2023-03-04T00:40:24.461Z,30.20
2023-03-04T00:42:51.040Z,30.20
2023-03-04T00:45:17.649Z,30.10
2023-03-04T00:47:44.196Z,30.30
2023-03-04T00:50:11.636Z,30.20
2023-03-04T00:52:38.182Z,30.10
2023-03-04T00:55:05.461Z,30.20
2023-03-04T00:57:32.053Z,29.60
2023-03-04T00:59:58.601Z,29.60
2023-03-04T01:02:25.310Z,29.50
2023-03-04T01:04:51.903Z,29.80
2023-03-04T01:07:18.598Z,29.60
2023-03-04T01:09:45.230Z,29.70
2023-03-04T01:12:12.195Z,29.40
2023-03-04T01:14:38.826Z,29.80
2023-03-04T01:17:05.445Z,29.70
2023-03-04T01:19:32.136Z,29.60
2023-03-04T01:21:58.683Z,29.60
2023-03-04T01:24:25.402Z,29.90
2023-03-04T01:26:51.992Z,29.70
2023-03-04T01:29:18.553Z,29.40
2023-03-04T01:31:45.100Z,29.80
2023-03-04T01:34:11.772Z,29.70
2023-03-04T01:36:38.386Z,29.70
2023-03-04T01:39:05.516Z,30.00
2023-03-04T01:41:32.470Z,29.90
2023-03-04T01:44:02.222Z,29.90
2023-03-04T01:46:30.537Z,29.70
2023-03-04T01:48:57.603Z,30.00
2023-03-04T01:51:24.645Z,29.50
2023-03-04T01:53:53.414Z,30.00
2023-03-04T01:56:24.899Z,29.90
2023-03-04T01:59:21.417Z,29.90
2023-03-04T02:01:54.111Z,29.70
2023-03-04T02:04:24.594Z,30.00
2023-03-04T02:06:51.895Z,29.70
2023-03-04T02:09:19.793Z,30.00
2023-03-04T02:11:47.563Z,30.10
2023-03-04T02:14:15.540Z,30.10
2023-03-04T02:16:42.240Z,29.80
2023-03-04T02:19:46.342Z,29.70
2023-03-04T02:22:12.918Z,29.70
2023-03-04T02:24:45.050Z,30.20
2023-03-04T02:27:12.157Z,30.20
2023-03-04T02:29:38.790Z,30.00
2023-03-04T02:32:05.528Z,30.10
2023-03-04T02:34:35.307Z,30.10
2023-03-04T02:37:03.635Z,30.10
2023-03-04T02:39:44.280Z,30.30
2023-03-04T02:42:11.608Z,30.10
2023-03-04T02:44:41.684Z,29.90
2023-03-04T02:47:10.881Z,29.60
2023-03-04T02:49:40.368Z,29.80
2023-03-04T02:52:14.661Z,29.80
2023-03-04T02:54:41.913Z,29.50
2023-03-04T02:57:11.547Z,30.10
2023-03-04T02:59:39.769Z,29.70
2023-03-04T03:02:07.756Z,29.40
2023-03-04T03:04:36.505Z,29.80
2023-03-04T03:07:03.169Z,29.90
2023-03-04T03:09:29.725Z,29.90
2023-03-04T03:11:56.387Z,29.70
2023-03-04T03:14:23.028Z,29.70
2023-03-04T03:16:49.610Z,30.00
2023-03-04T03:19:16.166Z,29.90
2023-03-04T03:21:42.735Z,29.70
2023-03-04T03:24:09.360Z,29.70
2023-03-04T03:26:36.001Z,30.00
2023-03-04T03:29:02.612Z,29.90
2023-03-04T03:31:29.256Z,29.80
2023-03-04T03:33:55.838Z,29.40
2023-03-04T03:36:22.442Z,29.60
2023-03-04T03:38:49.010Z,30.40
2023-03-04T03:41:15.568Z,30.70
2023-03-04T03:43:42.147Z,29.70
2023-03-04T03:46:08.782Z,30.40
2023-03-04T03:48:35.348Z,30.70
2023-03-04T03:51:02.020Z,31.10
2023-03-04T03:53:28.588Z,30.90
2023-03-04T03:55:55.159Z,29.90
2023-03-04T03:58:21.791Z,30.30
2023-03-04T04:00:48.398Z,30.90
2023-03-04T04:03:15.948Z,30.60
2023-03-04T04:05:42.553Z,30.60
2023-03-04T04:08:16.481Z,31.00
2023-03-04T04:10:43.689Z,30.60
2023-03-04T04:13:11.144Z,30.80
2023-03-04T04:15:38.689Z,30.70
2023-03-04T04:18:06.665Z,30.80
2023-03-04T04:20:33.650Z,30.50
2023-03-04T04:23:00.501Z,30.60
2023-03-04T04:25:27.224Z,30.80
2023-03-04T04:27:53.879Z,30.60
2023-03-04T04:30:20.570Z,30.40
2023-03-04T04:32:47.189Z,30.40
2023-03-04T04:35:13.783Z,30.60
2023-03-04T04:37:40.353Z,30.00
2023-03-04T04:40:07.481Z,29.80
2023-03-04T04:42:34.108Z,28.90
2023-03-04T04:45:00.681Z,28.80
2023-03-04T04:47:27.297Z,28.40
2023-03-04T04:49:53.859Z,30.10
2023-03-04T04:52:20.478Z,30.00
2023-03-04T04:54:47.097Z,30.50
2023-03-04T04:57:13.639Z,30.30
2023-03-04T04:59:40.269Z,29.80
2023-03-04T05:02:06.823Z,29.90
2023-03-04T05:04:33.434Z,29.80
2023-03-04T05:07:00.017Z,30.10
2023-03-04T05:09:26.604Z,30.10
2023-03-04T05:11:53.556Z,30.30
2023-03-04T05:14:20.231Z,30.20
2023-03-04T05:16:46.851Z,30.30
2023-03-04T05:19:13.513Z,30.30
2023-03-04T05:21:40.198Z,29.80
2023-03-04T05:24:07.965Z,29.90
2023-03-04T05:26:35.261Z,30.00
2023-03-04T05:29:01.844Z,30.00
2023-03-04T05:31:28.527Z,30.10
2023-03-04T05:33:55.134Z,30.20
2023-03-04T05:36:21.777Z,30.10
2023-03-04T05:38:48.358Z,30.20
2023-03-04T05:41:14.944Z,29.70
2023-03-04T05:43:42.881Z,29.90
2023-03-04T05:46:15.108Z,29.90
2023-03-04T05:48:42.057Z,29.60
2023-03-04T05:51:08.854Z,28.40
2023-03-04T05:53:36.934Z,28.60
2023-03-04T05:56:11.216Z,29.50
2023-03-04T05:58:38.275Z,28.30
2023-03-04T06:01:05.439Z,28.40
2023-03-04T06:03:32.561Z,28.70
2023-03-04T06:05:59.594Z,28.30
2023-03-04T06:08:26.968Z,28.40
2023-03-04T06:10:55.882Z,28.40
2023-03-04T06:13:23.032Z,28.30
2023-03-04T06:15:57.854Z,29.70
2023-03-04T06:18:26.129Z,28.30
2023-03-04T06:21:00.738Z,28.60
2023-03-04T06:23:27.931Z,28.70
2023-03-04T06:25:56.569Z,28.60
2023-03-04T06:28:23.665Z,28.40
2023-03-04T06:30:54.347Z,28.40
2023-03-04T06:33:21.077Z,28.30
2023-03-04T06:35:48.480Z,28.80
2023-03-04T06:38:15.100Z,28.50
2023-03-04T06:40:41.736Z,28.20
2023-03-04T06:43:08.294Z,28.30
2023-03-04T06:45:34.871Z,28.40
2023-03-04T06:48:01.438Z,28.50
2023-03-04T06:50:28.067Z,28.30
2023-03-04T06:52:56.871Z,28.30
2023-03-04T06:55:23.988Z,28.20
2023-03-04T06:57:50.935Z,28.60
2023-03-04T07:00:18.384Z,28.40
2023-03-04T07:02:45.291Z,28.90
2023-03-04T07:05:11.898Z,28.20
2023-03-04T07:07:38.709Z,28.30
2023-03-04T07:10:06.065Z,28.40
2023-03-04T07:12:32.826Z,28.50
2023-03-04T07:14:59.410Z,28.90
2023-03-04T07:17:26.120Z,28.40
2023-03-04T07:19:52.695Z,27.90
2023-03-04T07:22:19.327Z,28.40
2023-03-04T07:24:45.918Z,28.70
2023-03-04T07:27:12.545Z,28.60
2023-03-04T07:29:39.178Z,28.20
2023-03-04T07:32:09.894Z,28.30
2023-03-04T07:34:36.648Z,28.10
2023-03-04T07:37:03.600Z,28.40
2023-03-04T07:39:30.209Z,28.60
2023-03-04T07:41:56.777Z,28.20
2023-03-04T07:44:23.351Z,28.10
2023-03-04T07:46:50.047Z,28.00
2023-03-04T07:49:16.662Z,28.20
2023-03-04T07:51:43.364Z,28.40
2023-03-04T07:54:10.291Z,28.10
2023-03-04T07:56:36.904Z,28.60
2023-03-04T07:59:03.587Z,30.80
2023-03-04T08:01:33.627Z,31.10
2023-03-04T08:04:01.166Z,30.60
2023-03-04T08:06:29.903Z,30.90
2023-03-04T08:08:59.510Z,31.50
2023-03-04T08:11:27.666Z,31.50
2023-03-04T08:13:54.584Z,31.40
2023-03-04T08:16:23.359Z,31.60
2023-03-04T08:18:54.710Z,31.70
2023-03-04T08:21:23.615Z,32.20
2023-03-04T08:23:51.450Z,31.90
2023-03-04T08:26:20.159Z,32.10
2023-03-04T08:28:47.167Z,32.10
2023-03-04T08:31:15.107Z,32.30
2023-03-04T08:33:42.269Z,32.50
2023-03-04T08:36:09.559Z,32.60
2023-03-04T08:38:36.232Z,32.20
2023-03-04T08:41:04.005Z,31.90
2023-03-04T08:43:30.858Z,31.70
2023-03-04T08:45:57.531Z,31.80
2023-03-04T08:48:24.255Z,31.10
2023-03-04T08:50:51.542Z,31.00
2023-03-04T08:53:19.330Z,30.90
2023-03-04T08:55:46.368Z,31.30
2023-03-04T08:58:13.380Z,30.90
2023-03-04T09:00:43.825Z,30.60
2023-03-04T09:03:12.721Z,30.80
2023-03-04T09:05:39.467Z,30.30
2023-03-04T09:08:06.669Z,30.30
2023-03-04T09:10:33.805Z,30.10
2023-03-04T09:13:01.665Z,29.80
2023-03-04T09:15:28.739Z,30.20
2023-03-04T09:17:55.676Z,30.10
2023-03-04T09:20:23.098Z,30.10
2023-03-04T09:22:49.794Z,30.00
2023-03-04T09:25:16.452Z,30.40
2023-03-04T09:27:43.111Z,30.20
2023-03-04T09:30:10.380Z,30.00
2023-03-04T09:32:37.426Z,30.20
2023-03-04T09:35:04.790Z,29.80
2023-03-04T09:37:31.616Z,29.70
2023-03-04T09:39:58.189Z,29.80
2023-03-04T09:42:33.076Z,29.30
2023-03-04T09:45:00.514Z,29.90
2023-03-04T09:47:28.345Z,29.70
2023-03-04T09:49:58.603Z,30.10
2023-03-04T10:07:28.007Z,30.30
2023-03-04T10:10:02.365Z,30.70
2023-03-04T10:12:32.908Z,31.90
2023-03-04T10:15:04.215Z,33.30
2023-03-04T10:17:40.648Z,34.00
2023-03-04T10:20:11.307Z,33.00
2023-03-04T10:22:44.129Z,32.20
2023-03-04T10:25:31.303Z,32.10
2023-03-04T10:28:06.322Z,31.80
2023-03-04T10:31:27.163Z,31.70
2023-03-04T10:33:53.744Z,32.00
2023-03-04T10:36:36.385Z,32.40
2023-03-04T10:39:07.506Z,32.50
2023-03-04T10:41:34.276Z,32.50
2023-03-04T10:44:04.325Z,32.60
2023-03-04T10:46:31.951Z,32.60
2023-03-04T10:48:58.923Z,32.60
2023-03-04T10:51:28.503Z,32.50
2023-03-04T10:54:15.042Z,32.70
2023-03-04T10:56:46.203Z,32.60
2023-03-04T10:59:33.282Z,32.30
2023-03-04T11:02:01.136Z,32.20
2023-03-04T11:04:34.018Z,32.10
2023-03-04T11:07:00.632Z,32.10
2023-03-04T11:09:29.804Z,31.90
2023-03-04T11:11:59.863Z,31.90
2023-03-04T11:14:39.929Z,31.60
2023-03-04T11:17:25.021Z,31.60
2023-03-04T11:20:04.277Z,31.30
2023-03-04T11:22:32.323Z,31.40
2023-03-04T11:25:05.528Z,31.60
2023-03-04T11:27:44.397Z,31.30
2023-03-04T11:30:34.932Z,31.40
2023-03-04T11:33:11.805Z,31.20
2023-03-04T11:35:48.197Z,31.50
2023-03-04T11:38:26.981Z,31.80
2023-03-04T11:41:25.392Z,31.70
2023-03-04T11:43:52.164Z,32.20
2023-03-04T11:46:35.675Z,32.10
2023-03-04T11:49:32.394Z,31.80
2023-03-04T11:52:22.561Z,31.90
2023-03-04T11:55:08.243Z,31.60
2023-03-04T11:57:56.264Z,31.50
2023-03-04T12:00:35.703Z,31.60
2023-03-04T12:03:33.236Z,31.10
2023-03-04T12:06:16.464Z,30.90
2023-03-04T12:08:49.327Z,30.90
2023-03-04T12:11:54.145Z,31.10
2023-03-04T12:14:34.827Z,30.80
2023-03-04T12:17:12.306Z,30.70
2023-03-04T12:20:04.558Z,30.80
2023-03-04T12:22:44.420Z,30.80
2023-03-04T12:25:35.936Z,30.70
2023-03-04T12:28:40.452Z,30.60
2023-03-04T12:31:46.037Z,30.90
2023-03-04T12:34:28.912Z,30.60
2023-03-04T12:37:20.625Z,30.20
2023-03-04T12:40:12.349Z,30.60
2023-03-04T12:43:03.131Z,30.30
2023-03-04T12:45:59.277Z,30.30
2023-03-04T12:48:51.599Z,30.20
2023-03-04T12:51:44.416Z,30.30
2023-03-04T12:54:28.045Z,30.10
2023-03-04T12:57:02.442Z,30.60
2023-03-04T12:59:36.614Z,30.20
2023-03-04T13:02:29.565Z,30.40
2023-03-04T13:05:19.577Z,30.80
2023-03-04T13:08:11.294Z,30.60
2023-03-04T13:10:37.929Z,30.80
2023-03-04T13:13:04.716Z,30.70
2023-03-04T13:15:33.198Z,30.50
2023-03-04T13:18:22.004Z,30.60
2023-03-04T13:21:23.204Z,30.70
2023-03-04T13:23:50.773Z,30.60
2023-03-04T13:26:36.752Z,30.60
2023-03-04T13:29:30.846Z,30.80
2023-03-04T13:32:03.448Z,30.40
2023-03-04T13:34:52.853Z,30.70
2023-03-04T13:37:32.927Z,30.50
2023-03-04T13:40:22.424Z,30.70
2023-03-04T13:42:50.119Z,30.70
2023-03-04T13:45:35.894Z,30.90
2023-03-04T13:48:08.009Z,30.80
2023-03-04T13:50:41.665Z,30.80
2023-03-04T13:53:33.097Z,30.70
2023-03-04T13:56:08.219Z,30.70
2023-03-04T13:58:36.128Z,30.60
2023-03-04T14:01:03.577Z,30.70
2023-03-04T14:03:31.739Z,30.40
2023-03-04T14:06:23.341Z,30.80
2023-03-04T14:08:51.631Z,30.70
2023-03-04T14:11:38.533Z,30.80
2023-03-04T14:14:07.962Z,30.80
2023-03-04T14:16:40.714Z,30.50
2023-03-04T14:19:16.196Z,30.70
2023-03-04T14:21:46.666Z,30.60
2023-03-04T14:24:16.432Z,30.30
2023-03-04T14:26:43.085Z,30.30
2023-03-04T14:29:25.808Z,30.10
2023-03-04T14:31:53.872Z,30.30
2023-03-04T14:34:35.690Z,30.60
2023-03-04T14:37:04.934Z,30.60
2023-03-04T14:39:35.738Z,30.30
2023-03-04T14:42:10.374Z,30.30
2023-03-04T14:44:49.072Z,30.30
2023-03-04T14:47:44.158Z,30.20
2023-03-04T14:50:17.069Z,30.50
2023-03-04T14:52:46.517Z,30.40
2023-03-04T14:55:25.042Z,30.10
2023-03-04T14:57:58.492Z,30.40
2023-03-04T15:00:32.052Z,30.00
2023-03-04T15:03:17.003Z,30.10
2023-03-04T15:05:43.613Z,30.40
2023-03-04T15:08:27.829Z,30.00
2023-03-04T15:11:00.124Z,30.20
2023-03-04T15:13:43.179Z,30.20
2023-03-04T15:16:13.062Z,30.10
2023-03-04T15:18:53.678Z,30.20
2023-03-04T15:21:20.214Z,30.30
2023-03-04T15:23:46.947Z,30.30
2023-03-04T15:26:14.070Z,30.30
2023-03-04T15:28:41.950Z,29.80
2023-03-04T15:31:19.848Z,30.20
2023-03-04T15:33:46.874Z,30.20
2023-03-04T15:36:17.776Z,30.30
2023-03-04T15:38:48.737Z,30.20
2023-03-04T15:41:21.371Z,30.20
2023-03-04T15:43:47.990Z,30.30
2023-03-04T15:46:16.878Z,30.60
2023-03-04T15:48:45.508Z,30.40
2023-03-04T15:51:22.697Z,30.60
2023-03-04T15:53:59.585Z,30.80
2023-03-04T15:56:33.621Z,30.50
2023-03-04T15:59:09.611Z,30.30
2023-03-04T16:01:36.217Z,30.30
2023-03-04T16:04:02.883Z,30.50
2023-03-04T16:06:32.244Z,29.80
2023-03-04T16:08:59.980Z,29.70
2023-03-04T16:11:29.516Z,29.70
2023-03-04T16:13:56.434Z,29.40
2023-03-04T16:16:23.005Z,28.60
2023-03-04T16:18:49.605Z,28.30
2023-03-04T16:21:19.511Z,29.10
2023-03-04T16:23:48.990Z,29.40
2023-03-04T16:26:18.888Z,29.40
2023-03-04T16:28:45.609Z,29.70
2023-03-04T16:31:14.121Z,29.30
2023-03-04T16:33:40.884Z,29.60
2023-03-04T16:36:15.123Z,29.60
2023-03-04T16:38:42.878Z,29.50
2023-03-04T16:41:13.136Z,29.70
2023-03-04T16:43:41.008Z,29.50
2023-03-04T16:46:08.186Z,29.50
2023-03-04T16:48:35.228Z,29.50
2023-03-04T16:51:09.993Z,29.60
2023-03-04T16:53:38.556Z,29.20
2023-03-04T16:56:12.444Z,29.40
2023-03-04T16:58:39.150Z,29.50
2023-03-04T17:01:06.073Z,29.60
2023-03-04T17:03:33.116Z,29.40
2023-03-04T17:05:59.716Z,29.10
2023-03-04T17:08:26.280Z,29.00
2023-03-04T17:10:52.976Z,29.40
2023-03-04T17:13:19.578Z,29.50
2023-03-04T17:15:46.861Z,29.40
2023-03-04T17:18:13.612Z,29.40
2023-03-04T17:20:40.599Z,29.30
2023-03-04T17:23:07.299Z,29.40
2023-03-04T17:25:33.906Z,29.20
2023-03-04T17:28:00.488Z,29.70
2023-03-04T17:30:27.271Z,29.10
2023-03-04T17:32:54.103Z,29.50
2023-03-04T17:35:20.768Z,29.10
2023-03-04T17:37:47.472Z,29.00
2023-03-04T17:40:14.404Z,29.20
2023-03-04T17:42:42.418Z,29.10
2023-03-04T17:45:10.659Z,29.30
2023-03-04T17:47:38.012Z,29.30
2023-03-04T17:50:06.707Z,29.50
2023-03-04T17:52:33.621Z,28.80
2023-03-04T17:55:00.271Z,29.20
2023-03-04T17:57:27.164Z,29.10
2023-03-04T17:59:53.818Z,28.60
2023-03-04T18:02:20.550Z,29.40
2023-03-04T18:04:48.875Z,29.30
2023-03-04T18:07:15.468Z,29.30
2023-03-04T18:09:43.165Z,29.50
2023-03-04T18:12:09.772Z,29.80
2023-03-04T18:14:36.429Z,29.80
2023-03-04T18:17:03.023Z,30.20
2023-03-04T18:19:29.690Z,29.90
2023-03-04T18:21:56.314Z,29.50
2023-03-04T18:24:22.959Z,29.40
2023-03-04T18:26:49.717Z,29.30
2023-03-04T18:29:16.286Z,29.50
2023-03-04T18:31:43.209Z,29.30
2023-03-04T18:34:10.812Z,29.00
2023-03-04T18:36:37.374Z,29.00
2023-03-04T18:39:07.222Z,29.00
2023-03-04T18:41:34.160Z,28.90
2023-03-04T18:44:00.808Z,29.20
2023-03-04T18:46:46.922Z,29.30
2023-03-04T18:49:15.017Z,29.10
2023-03-04T18:51:41.651Z,29.30
2023-03-04T18:54:08.363Z,29.10
2023-03-04T18:56:43.128Z,28.90
2023-03-04T18:59:24.034Z,29.70
2023-03-04T19:01:54.466Z,28.70
2023-03-04T19:04:23.561Z,28.60
2023-03-04T19:06:50.196Z,30.00
2023-03-04T19:09:16.776Z,31.20
2023-03-04T19:11:43.408Z,31.30
2023-03-04T19:14:11.643Z,31.50
2023-03-04T19:16:39.820Z,31.30
2023-03-04T19:19:06.425Z,31.20
2023-03-04T19:21:38.309Z,31.40
2023-03-04T19:24:05.664Z,30.80
2023-03-04T19:26:32.363Z,30.70
2023-03-04T19:28:59.013Z,30.90
2023-03-04T19:31:25.778Z,30.70
2023-03-04T19:33:52.371Z,30.80
2023-03-04T19:36:19.002Z,30.90
2023-03-04T19:38:45.641Z,30.50
2023-03-04T19:41:17.378Z,30.50
2023-03-04T19:43:45.848Z,30.20
2023-03-04T19:46:13.372Z,30.50
2023-03-04T19:48:40.885Z,30.40
2023-03-04T19:51:15.897Z,30.20
2023-03-04T19:53:42.644Z,30.20
2023-03-04T19:56:09.532Z,29.40
2023-03-04T19:58:36.292Z,29.50
2023-03-04T20:01:03.374Z,29.20
2023-03-04T20:03:30.290Z,29.30
2023-03-04T20:06:07.555Z,29.60
2023-03-04T20:08:37.849Z,29.40
2023-03-04T20:11:11.682Z,29.50
2023-03-04T20:13:38.265Z,29.40
2023-03-04T20:16:12.561Z,28.90
2023-03-04T20:18:39.789Z,29.40
2023-03-04T20:21:07.186Z,28.90
2023-03-04T20:23:34.634Z,28.90
2023-03-04T20:26:01.824Z,29.40
2023-03-04T20:28:28.825Z,29.50
2023-03-04T20:31:13.877Z,29.10
2023-03-04T20:33:40.532Z,29.10
2023-03-04T20:36:07.316Z,29.00
2023-03-04T20:38:33.935Z,29.10
2023-03-04T20:41:00.620Z,28.70
2023-03-04T20:43:28.607Z,29.30
2023-03-04T20:45:56.248Z,29.20
2023-03-04T20:48:22.874Z,29.40
2023-03-04T20:50:49.442Z,29.40
2023-03-04T20:53:16.002Z,29.10
2023-03-04T20:55:42.574Z,29.40
2023-03-04T20:58:09.143Z,28.90
2023-03-04T21:00:38.180Z,29.20
2023-03-04T21:03:04.915Z,29.40
2023-03-04T21:05:31.496Z,29.30
2023-03-04T21:07:59.063Z,28.90
2023-03-04T21:10:25.684Z,29.20
2023-03-04T21:12:52.352Z,28.70
2023-03-04T21:15:18.987Z,28.60
2023-03-04T21:17:45.629Z,28.20
2023-03-04T21:20:15.148Z,27.60
2023-03-04T21:22:41.730Z,27.40
2023-03-04T21:25:08.820Z,27.70
2023-03-04T21:27:38.710Z,27.70
2023-03-04T21:30:05.930Z,27.70
2023-03-04T21:32:32.531Z,28.00
2023-03-04T21:34:59.201Z,27.60
2023-03-04T21:37:26.364Z,28.00
2023-03-04T21:39:53.608Z,27.90
2023-03-04T21:42:20.330Z,28.10
2023-03-04T21:44:51.401Z,27.70
2023-03-04T21:47:19.583Z,27.70
2023-03-04T21:49:47.074Z,27.80
2023-03-04T21:52:14.018Z,28.10
2023-03-04T21:54:40.642Z,28.20
2023-03-04T21:57:07.382Z,27.70
2023-03-04T21:59:34.012Z,28.60
2023-03-04T22:02:01.683Z,27.50
2023-03-04T22:04:28.383Z,27.70
2023-03-04T22:06:54.959Z,27.70
2023-03-04T22:09:21.537Z,27.90
2023-03-04T22:11:48.112Z,28.30
2023-03-04T22:14:14.748Z,27.90
2023-03-04T22:16:54.439Z,27.60
2023-03-04T22:19:27.752Z,28.00
2023-03-04T22:21:54.491Z,27.60
2023-03-04T22:24:21.806Z,27.30
2023-03-04T22:26:48.890Z,27.80
2023-03-04T22:29:15.567Z,27.60
2023-03-04T22:31:42.333Z,27.60
2023-03-04T22:34:11.913Z,27.70
2023-03-04T22:36:41.208Z,27.40
2023-03-04T22:39:10.211Z,27.50
2023-03-04T22:41:37.143Z,27.50
2023-03-04T22:44:05.944Z,25.70
2023-03-04T22:46:35.687Z,26.80
2023-03-04T22:49:04.875Z,27.70
2023-03-04T22:51:32.163Z,27.10
2023-03-04T22:53:58.821Z,27.60
2023-03-04T22:56:25.430Z,27.10
2023-03-04T22:58:52.157Z,27.20
2023-03-04T23:01:19.540Z,27.10
2023-03-04T23:03:48.131Z,27.30
2023-03-04T23:06:18.394Z,26.90
2023-03-04T23:08:47.174Z,27.30
2023-03-04T23:11:21.075Z,27.00
2023-03-04T23:13:48.745Z,27.00
2023-03-04T23:16:15.648Z,27.60
2023-03-04T23:18:46.458Z,27.10
2023-03-04T23:21:20.300Z,27.20
2023-03-04T23:23:47.566Z,27.20
2023-03-04T23:26:25.778Z,27.00
2023-03-04T23:28:53.154Z,27.30
2023-03-04T23:31:19.852Z,27.00
2023-03-04T23:33:47.752Z,27.20
2023-03-04T23:36:16.978Z,27.30
2023-03-04T23:38:45.270Z,27.00
2023-03-04T23:41:14.635Z,25.70
2023-03-04T23:43:41.311Z,25.70
2023-03-04T23:46:14.132Z,26.00
2023-03-04T23:48:43.200Z,26.70
2023-03-04T23:51:10.324Z,27.10
2023-03-04T23:53:38.929Z,26.70
2023-03-04T23:56:27.467Z,27.00
2023-03-04T23:58:54.565Z,27.00
